Time;durP1;ratioP1;P1;durP2;ratioP2;P2;SDS_P1;SDS_P2;PMS_P1;PMS_P2;Temp;Humidity;BMP_temperature;BMP_pressure;BME280_temperature;BME280_humidity;BME280_pressure;Samples;Min_cycle;Max_cycle;Signal;HPM_P1;HPM_P2
2022/05/05 00:00:43;;;;;;;;;;;;;;;22.03;30.77;101671.78;2091273;28;792;-60
2022/05/05 00:01:43;;;;;;;;;;;;;;;22.02;30.43;101678.13;2091288;28;863;-59
2022/05/05 00:02:43;;;;;;;;;;;;;;;22.02;31.22;101671.84;2091281;28;982;-59
2022/05/05 00:03:44;;;;;;;;;;;;;;;22.00;30.91;101663.78;2091115;28;1166;-59
2022/05/05 00:04:44;;;;;;;;;;;;;;;22.01;30.69;101673.66;2091242;28;1915;-59
2022/05/05 00:05:44;;;;;;;;;;;;;;;22.00;31.00;101668.31;2091213;28;937;-59
2022/05/05 00:06:44;;;;;;;;;;;;;;;21.99;30.41;101663.84;2091251;28;866;-59
2022/05/05 00:07:44;;;;;;;;;;;;;;;21.99;31.07;101662.00;2091285;28;1083;-59
2022/05/05 00:08:44;;;;;;;;;;;;;;;21.99;30.49;101667.41;2091365;28;694;-59
2022/05/05 00:09:44;;;;;;;;;;;;;;;21.99;30.41;101671.94;2091182;28;823;-59
2022/05/05 00:14:42;;;;;;;;;;;;;;;21.97;30.99;101665.69;2091353;28;601;-59
2022/05/05 00:15:42;;;;;;;;;;;;;;;21.96;31.06;101659.38;2091228;28;795;-59
2022/05/05 00:16:43;;;;;;;;;;;;;;;21.94;30.91;101663.94;2091276;28;744;-59
2022/05/05 00:17:43;;;;;;;;;;;;;;;21.95;30.89;101660.31;2091179;28;870;-59
2022/05/05 00:18:43;;;;;;;;;;;;;;;21.93;30.43;101662.16;2091237;28;1033;-59
2022/05/05 00:19:43;;;;;;;;;;;;;;;21.94;31.06;101661.25;2091159;28;839;-60
2022/05/05 00:20:44;;;;;;;;;;;;;;;21.93;30.45;101662.16;2091263;28;846;-59
2022/05/05 00:21:44;;;;;;;;;;;;;;;21.93;30.58;101656.75;2091175;28;779;-59
2022/05/05 00:22:44;;;;;;;;;;;;;;;21.92;30.98;101661.28;2090448;28;895;-59
2022/05/05 00:23:44;;;;;;;;;;;;;;;21.93;30.42;101664.88;2090632;28;850;-59
2022/05/05 00:24:44;;;;;;;;;;;;;;;21.92;30.78;101658.59;2091090;28;1894;-59
2022/05/05 00:25:45;;;;;;;;;;;;;;;21.92;30.67;101655.91;2091187;28;925;-59
2022/05/05 00:26:45;;;;;;;;;;;;;;;21.93;31.22;101654.06;2091196;28;774;-59
2022/05/05 00:27:45;;;;;;;;;;;;;;;21.92;31.04;101661.28;2091309;28;706;-59
2022/05/05 00:28:45;;;;;;;;;;;;;;;21.91;30.87;101654.13;2091159;28;759;-59
2022/05/05 00:29:45;;;;;;;;;;;;;;;21.90;30.61;101657.75;2091117;28;854;-59
2022/05/05 00:30:46;;;;;;;;;;;;;;;21.91;31.42;101658.63;2091140;28;1052;-59
2022/05/05 00:31:46;;;;;;;;;;;;;;;21.90;31.13;101659.53;2090428;28;1032;-59
2022/05/05 00:32:46;;;;;;;;;;;;;;;21.91;30.63;101661.31;2090632;28;767;-59
2022/05/05 00:33:46;;;;;;;;;;;;;;;21.90;31.27;101651.44;2091110;28;862;-59
2022/05/05 00:34:46;;;;;;;;;;;;;;;21.89;31.38;101649.69;2091114;28;866;-59
2022/05/05 00:35:47;;;;;;;;;;;;;;;21.90;31.27;101654.16;2091229;28;1035;-59
2022/05/05 00:36:47;;;;;;;;;;;;;;;21.90;31.03;101656.84;2091072;28;864;-59
2022/05/05 00:37:47;;;;;;;;;;;;;;;21.89;30.69;101653.28;2091056;28;1171;-59
2022/05/05 00:38:47;;;;;;;;;;;;;;;21.89;30.75;101655.06;2091131;28;965;-59
2022/05/05 00:39:47;;;;;;;;;;;;;;;21.88;30.77;101656.00;2091075;28;797;-59
2022/05/05 00:40:47;;;;;;;;;;;;;;;21.88;31.34;101658.69;2091078;28;1039;-59
2022/05/05 00:41:48;;;;;;;;;;;;;;;21.88;30.98;101653.31;2091076;28;787;-59
2022/05/05 00:42:48;;;;;;;;;;;;;;;21.87;31.03;101652.44;2091205;28;976;-59
2022/05/05 00:43:49;;;;;;;;;;;;;;;21.86;30.75;101658.75;2091090;28;890;-60
2022/05/05 00:44:49;;;;;;;;;;;;;;;21.86;31.11;101657.84;2091008;28;1894;-59
2022/05/05 00:45:49;;;;;;;;;;;;;;;21.86;31.66;101657.84;2091187;28;1036;-59
2022/05/05 00:46:50;;;;;;;;;;;;;;;21.85;31.57;101665.06;2091061;28;737;-59
2022/05/05 00:47:50;;;;;;;;;;;;;;;21.87;30.64;101659.63;2091083;28;799;-59
2022/05/05 00:48:50;;;;;;;;;;;;;;;21.85;30.95;101656.97;2091854;28;917;-59
2022/05/05 00:49:52;;;;;;;;;;;;;;;21.86;30.95;101660.56;2093077;28;1009;-59
2022/05/05 00:50:52;;;;;;;;;;;;;;;21.85;31.25;101656.06;2091051;28;854;-59
2022/05/05 00:51:53;;;;;;;;;;;;;;;21.86;30.85;101655.16;2091033;28;1024;-59
2022/05/05 00:52:53;;;;;;;;;;;;;;;21.84;31.51;101655.22;2091048;28;822;-59
2022/05/05 00:53:54;;;;;;;;;;;;;;;21.84;31.82;101652.50;2091956;28;989;-59
2022/05/05 00:54:55;;;;;;;;;;;;;;;21.83;30.92;101666.91;2092732;28;841;-59
2022/05/05 00:55:56;;;;;;;;;;;;;;;21.83;31.77;101657.94;2092668;28;854;-59
2022/05/05 00:56:56;;;;;;;;;;;;;;;21.83;31.64;101661.53;2092664;28;973;-59
2022/05/05 00:57:57;;;;;;;;;;;;;;;21.83;31.64;101656.13;2092671;28;834;-59
2022/05/05 00:58:57;;;;;;;;;;;;;;;21.84;31.17;101659.69;2091961;28;1565;-59
2022/05/05 00:59:59;;;;;;;;;;;;;;;21.82;30.98;101662.44;2092252;28;764;-59
2022/05/05 01:01:04;;;;;;;;;;;;;;;21.83;30.93;101666.03;2092707;28;977;-59
2022/05/05 01:02:04;;;;;;;;;;;;;;;21.82;30.91;101664.25;2092640;28;814;-59
2022/05/05 01:03:07;;;;;;;;;;;;;;;21.82;31.00;101664.25;2092522;28;1250;-59
2022/05/05 01:04:07;;;;;;;;;;;;;;;21.81;31.65;101663.38;2092687;28;1024;-59
2022/05/05 01:05:08;;;;;;;;;;;;;;;21.82;31.82;101658.84;2092640;28;1914;-59
2022/05/05 01:06:08;;;;;;;;;;;;;;;21.81;31.44;101662.47;2092574;28;863;-59
2022/05/05 01:07:08;;;;;;;;;;;;;;;21.82;31.55;101675.03;2092636;28;862;-59
2022/05/05 01:08:09;;;;;;;;;;;;;;;21.82;31.86;101667.84;2092579;28;874;-59
2022/05/05 01:09:09;;;;;;;;;;;;;;;21.82;31.09;101672.34;2092573;28;803;-60
2022/05/05 01:10:09;;;;;;;;;;;;;;;21.81;31.30;101657.09;2092521;28;1012;-59
2022/05/05 01:11:10;;;;;;;;;;;;;;;21.82;30.91;101666.94;2092558;28;973;-59
2022/05/05 01:12:10;;;;;;;;;;;;;;;21.81;31.01;101667.88;2092588;28;791;-59
2022/05/05 01:13:10;;;;;;;;;;;;;;;21.80;31.77;101663.41;2092546;28;1003;-59
2022/05/05 01:14:10;;;;;;;;;;;;;;;21.80;30.91;101672.41;2092528;28;1020;-59
2022/05/05 01:15:11;;;;;;;;;;;;;;;21.79;31.48;101667.94;2092651;28;863;-59
2022/05/05 01:16:11;;;;;;;;;;;;;;;21.80;31.23;101663.41;2092555;28;795;-59
2022/05/05 01:17:11;;;;;;;;;;;;;;;21.79;31.03;101665.22;2092577;28;827;-59
2022/05/05 01:18:11;;;;;;;;;;;;;;;21.79;31.28;101669.72;2092486;28;1001;-59
2022/05/05 01:19:11;;;;;;;;;;;;;;;21.80;31.22;101666.09;2092528;28;973;-59
2022/05/05 01:20:15;;;;;;;;;;;;;;;21.80;31.58;101667.00;2092506;28;854;-59
2022/05/05 01:21:18;;;;;;;;;;;;;;;21.80;31.73;101669.69;2092521;28;779;-59
2022/05/05 01:22:19;;;;;;;;;;;;;;;21.80;31.71;101672.41;2092495;28;981;-59
2022/05/05 01:23:19;;;;;;;;;;;;;;;21.80;31.94;101664.31;2092544;28;772;-59
2022/05/05 01:28:10;;;;;;;;;;;;;;;21.79;31.79;101667.94;2092461;28;985;-59
2022/05/05 01:28:18;;;;;;;;;;;;;;;21.77;31.61;101675.16;2092433;28;653;-59
2022/05/05 01:29:19;;;;;;;;;;;;;;;21.77;32.00;101672.47;2092473;28;913;-59
2022/05/05 01:30:19;;;;;;;;;;;;;;;21.78;31.13;101671.53;2092427;28;807;-59
2022/05/05 01:31:19;;;;;;;;;;;;;;;21.79;31.44;101662.53;2092391;28;1016;-59
2022/05/05 01:32:19;;;;;;;;;;;;;;;21.78;31.10;101666.16;2092452;28;834;-59
2022/05/05 01:33:20;;;;;;;;;;;;;;;21.79;31.41;101669.72;2092416;28;981;-59
2022/05/05 01:34:21;;;;;;;;;;;;;;;21.78;31.44;101666.16;2093585;28;751;-59
2022/05/05 01:35:21;;;;;;;;;;;;;;;21.79;31.29;101664.31;2094503;28;756;-60
2022/05/05 01:36:21;;;;;;;;;;;;;;;21.79;31.45;101667.03;2094312;28;926;-59
2022/05/05 01:37:21;;;;;;;;;;;;;;;21.80;31.09;101660.69;2092394;28;985;-59
2022/05/05 01:38:22;;;;;;;;;;;;;;;21.77;32.00;101659.88;2092412;28;771;-59
2022/05/05 01:39:22;;;;;;;;;;;;;;;21.79;31.93;101669.72;2092343;28;969;-59
2022/05/05 01:40:22;;;;;;;;;;;;;;;21.77;31.88;101659.88;2092287;28;1028;-59
2022/05/05 01:41:23;;;;;;;;;;;;;;;21.77;31.25;101662.59;2092335;28;981;-59
2022/05/05 01:42:23;;;;;;;;;;;;;;;21.77;31.07;101662.59;2092349;28;989;-59
2022/05/05 01:43:23;;;;;;;;;;;;;;;21.77;31.43;101654.50;2092364;28;835;-59
2022/05/05 01:44:23;;;;;;;;;;;;;;;21.76;31.37;101660.81;2092310;28;795;-59
2022/05/05 01:45:23;;;;;;;;;;;;;;;21.78;31.78;101660.75;2092198;28;1947;-59
2022/05/05 01:46:24;;;;;;;;;;;;;;;21.78;31.64;101660.75;2092321;28;848;-59
2022/05/05 01:47:24;;;;;;;;;;;;;;;21.79;31.46;101650.84;2092514;28;779;-59
2022/05/05 01:48:24;;;;;;;;;;;;;;;21.78;31.38;101655.38;2092302;28;973;-59
2022/05/05 01:49:24;;;;;;;;;;;;;;;21.79;31.29;101653.53;2092289;28;795;-59
2022/05/05 01:50:25;;;;;;;;;;;;;;;21.79;31.87;101658.94;2092222;28;850;-59
2022/05/05 01:51:25;;;;;;;;;;;;;;;21.78;31.48;101647.28;2091710;28;880;-59
2022/05/05 01:52:27;;;;;;;;;;;;;;;21.77;31.17;101651.81;2091643;28;752;-59
2022/05/05 01:53:27;;;;;;;;;;;;;;;21.77;31.99;101649.09;2092260;28;859;-59
2022/05/05 01:54:27;;;;;;;;;;;;;;;21.77;31.52;101649.09;2092197;28;772;-59
2022/05/05 01:55:28;;;;;;;;;;;;;;;21.76;31.43;101650.03;2092221;28;980;-59
2022/05/05 01:56:28;;;;;;;;;;;;;;;21.76;31.47;101646.44;2092233;28;764;-59
2022/05/05 01:57:28;;;;;;;;;;;;;;;21.75;31.86;101650.94;2092203;28;854;-59
2022/05/05 01:58:28;;;;;;;;;;;;;;;21.76;32.09;101658.13;2091551;28;893;-59
2022/05/05 01:59:28;;;;;;;;;;;;;;;21.75;31.96;101659.03;2091646;28;851;-59
2022/05/05 02:00:28;;;;;;;;;;;;;;;21.76;31.31;101650.03;2092182;28;1003;-59
2022/05/05 02:01:29;;;;;;;;;;;;;;;21.76;32.21;101649.13;2092145;28;977;-59
2022/05/05 02:02:29;;;;;;;;;;;;;;;21.76;31.52;101654.53;2092223;28;977;-59
2022/05/05 02:03:29;;;;;;;;;;;;;;;21.75;31.47;101647.34;2092082;28;1093;-59
2022/05/05 02:04:29;;;;;;;;;;;;;;;21.76;31.57;101649.13;2092128;28;746;-59
2022/05/05 02:05:29;;;;;;;;;;;;;;;21.75;31.54;101648.25;2091126;28;1965;-60
2022/05/05 02:06:29;;;;;;;;;;;;;;;21.75;31.23;101653.66;2092145;28;859;-60
2022/05/05 02:07:29;;;;;;;;;;;;;;;21.76;32.08;101655.41;2092091;28;1013;-59
2022/05/05 02:08:29;;;;;;;;;;;;;;;21.77;31.28;101656.28;2092118;28;989;-59
2022/05/05 02:09:30;;;;;;;;;;;;;;;21.75;31.50;101650.94;2092139;28;937;-59
2022/05/05 02:10:31;;;;;;;;;;;;;;;21.75;31.74;101641.97;2092086;28;806;-59
2022/05/05 02:11:31;;;;;;;;;;;;;;;21.76;31.42;101652.72;2092118;28;1036;-59
2022/05/05 02:12:31;;;;;;;;;;;;;;;21.75;31.54;101650.94;2092108;28;964;-59
2022/05/05 02:13:32;;;;;;;;;;;;;;;21.74;31.88;101651.88;2092146;28;862;-59
2022/05/05 02:14:32;;;;;;;;;;;;;;;21.75;32.37;101652.75;2093929;28;787;-59
2022/05/05 02:15:34;;;;;;;;;;;;;;;21.75;32.15;101653.66;2094460;28;973;-59
2022/05/05 02:16:34;;;;;;;;;;;;;;;21.75;31.26;101653.66;2092565;28;806;-59
2022/05/05 02:17:37;;;;;;;;;;;;;;;21.75;32.31;101650.03;2092101;28;854;-59
2022/05/05 02:18:37;;;;;;;;;;;;;;;21.75;32.35;101647.34;2092104;28;1036;-59
2022/05/05 02:19:39;;;;;;;;;;;;;;;21.74;31.62;101650.97;2092019;28;694;-59
2022/05/05 02:20:39;;;;;;;;;;;;;;;21.73;31.80;101652.81;2092217;28;698;-59
2022/05/05 02:21:39;;;;;;;;;;;;;;;21.73;31.47;101646.50;2091977;28;961;-59
2022/05/05 02:22:40;;;;;;;;;;;;;;;21.75;31.94;101658.13;2092012;28;810;-59
2022/05/05 02:23:40;;;;;;;;;;;;;;;21.75;31.60;101650.94;2091981;28;1008;-59
2022/05/05 02:24:40;;;;;;;;;;;;;;;21.74;31.60;101651.88;2092011;28;771;-59
2022/05/05 02:25:40;;;;;;;;;;;;;;;21.74;32.08;101645.56;2091945;28;1886;-59
2022/05/05 02:26:41;;;;;;;;;;;;;;;21.74;32.39;101656.38;2091945;28;937;-59
2022/05/05 02:27:48;;;;;;;;;;;;;;;21.74;32.28;101653.66;2091979;28;839;-59
2022/05/05 02:28:49;;;;;;;;;;;;;;;21.74;31.84;101649.19;2091999;28;853;-59
2022/05/05 02:29:50;;;;;;;;;;;;;;;21.74;31.53;101648.28;2091988;28;798;-59
2022/05/05 02:30:50;;;;;;;;;;;;;;;21.74;32.28;101651.88;2092032;28;831;-59
2022/05/05 02:31:50;;;;;;;;;;;;;;;21.75;31.85;101652.75;2091875;28;985;-59
2022/05/05 02:32:50;;;;;;;;;;;;;;;21.75;32.14;101641.97;2091931;28;729;-59
2022/05/05 02:33:51;;;;;;;;;;;;;;;21.75;31.71;101641.97;2091865;28;997;-59
2022/05/05 02:34:51;;;;;;;;;;;;;;;21.75;31.86;101648.25;2091958;28;1058;-59
2022/05/05 02:38:42;;;;;;;;;;;;;;;21.76;31.75;101646.44;2091957;28;973;-59
2022/05/05 02:38:42;;;;;;;;;;;;;;;21.74;31.61;101651.88;2091922;28;617;-59
2022/05/05 02:39:42;;;;;;;;;;;;;;;21.73;32.33;101642.00;2091974;28;787;-59
2022/05/05 02:40:42;;;;;;;;;;;;;;;21.74;31.57;101643.78;2091905;28;799;-59
2022/05/05 02:41:42;;;;;;;;;;;;;;;21.73;32.25;101651.91;2091877;28;850;-59
2022/05/05 02:42:43;;;;;;;;;;;;;;;21.73;31.62;101650.09;2091920;28;792;-59
2022/05/05 02:43:43;;;;;;;;;;;;;;;21.73;31.97;101649.19;2091865;28;780;-59
2022/05/05 02:44:43;;;;;;;;;;;;;;;21.74;32.45;101645.56;2091903;28;784;-59
2022/05/05 02:45:43;;;;;;;;;;;;;;;21.74;31.88;101643.78;2091699;28;1890;-59
2022/05/05 02:46:44;;;;;;;;;;;;;;;21.73;31.86;101639.31;2091829;28;981;-59
2022/05/05 02:47:46;;;;;;;;;;;;;;;21.75;31.94;101644.66;2091902;28;781;-59
2022/05/05 02:48:46;;;;;;;;;;;;;;;21.75;31.69;101647.34;2091776;28;749;-59
2022/05/05 02:49:46;;;;;;;;;;;;;;;21.74;32.60;101634.78;2091958;28;858;-59
2022/05/05 02:50:46;;;;;;;;;;;;;;;21.74;31.66;101640.19;2091796;28;874;-59
2022/05/05 02:51:46;;;;;;;;;;;;;;;21.74;31.80;101637.50;2091803;28;965;-59
2022/05/05 02:52:47;;;;;;;;;;;;;;;21.73;31.80;101635.72;2091986;28;696;-59
2022/05/05 02:55:06;;;;;;;;;;;;;;;21.73;31.91;101633.03;2091804;28;609;-59
2022/05/05 02:56:06;;;;;;;;;;;;;;;21.73;32.60;101639.31;2091768;28;973;-59
2022/05/05 02:57:07;;;;;;;;;;;;;;;21.73;31.83;101636.63;2092496;28;839;-59
2022/05/05 02:58:07;;;;;;;;;;;;;;;21.72;31.76;101637.53;2094224;28;859;-59
2022/05/05 02:59:07;;;;;;;;;;;;;;;21.72;32.34;101632.16;2093902;28;807;-59
2022/05/05 03:00:10;;;;;;;;;;;;;;;21.72;31.80;101637.53;2091991;28;839;-59
2022/05/05 03:01:11;;;;;;;;;;;;;;;21.73;31.94;101633.94;2091730;28;866;-59
2022/05/05 03:02:11;;;;;;;;;;;;;;;21.73;32.16;101633.94;2091728;28;947;-59
2022/05/05 03:03:11;;;;;;;;;;;;;;;21.73;31.64;101639.31;2091651;28;1050;-59
2022/05/05 03:04:11;;;;;;;;;;;;;;;21.74;32.24;101635.69;2091797;28;1036;-59
2022/05/05 03:05:15;;;;;;;;;;;;;;;21.73;31.95;101628.53;2091638;28;1906;-59
2022/05/05 03:06:15;;;;;;;;;;;;;;;21.73;32.69;101636.63;2091649;28;823;-59
2022/05/05 03:07:16;;;;;;;;;;;;;;;21.72;31.67;101621.38;2091691;28;1016;-59
2022/05/05 03:08:16;;;;;;;;;;;;;;;21.71;32.44;101625.00;2091897;28;911;-59
2022/05/05 03:09:16;;;;;;;;;;;;;;;21.73;32.18;101628.53;2091629;28;594;-59
2022/05/05 03:10:16;;;;;;;;;;;;;;;21.74;32.78;101618.63;2091646;28;818;-59
2022/05/05 03:11:16;;;;;;;;;;;;;;;21.75;32.71;101620.38;2091553;28;1112;-59
2022/05/05 03:12:17;;;;;;;;;;;;;;;21.74;32.11;101615.91;2091644;28;771;-59
2022/05/05 03:13:17;;;;;;;;;;;;;;;21.73;32.00;101620.44;2091584;28;981;-59
2022/05/05 03:14:17;;;;;;;;;;;;;;;21.74;32.05;101618.63;2091624;28;858;-59
2022/05/05 03:15:17;;;;;;;;;;;;;;;21.74;32.71;101614.13;2091534;28;981;-59
2022/05/05 03:16:17;;;;;;;;;;;;;;;21.74;32.04;101613.22;2091463;28;985;-59
2022/05/05 03:17:17;;;;;;;;;;;;;;;21.73;31.84;101619.53;2091548;28;831;-59
2022/05/05 03:18:17;;;;;;;;;;;;;;;21.72;32.22;101613.28;2091582;28;973;-59
2022/05/05 03:19:18;;;;;;;;;;;;;;;21.73;32.62;101611.44;2091585;28;1036;-59
2022/05/05 03:20:18;;;;;;;;;;;;;;;21.72;31.90;101602.50;2091791;28;800;-59
2022/05/05 03:21:18;;;;;;;;;;;;;;;21.73;32.03;101615.03;2091612;28;736;-59
2022/05/05 03:22:18;;;;;;;;;;;;;;;21.73;32.74;101622.22;2091551;28;1032;-59
2022/05/05 03:23:18;;;;;;;;;;;;;;;21.72;32.55;101615.97;2091515;28;755;-59
2022/05/05 03:24:18;;;;;;;;;;;;;;;21.72;32.04;101621.38;2091540;28;803;-59
2022/05/05 03:25:19;;;;;;;;;;;;;;;21.75;32.15;101610.50;2091413;28;1890;-59
2022/05/05 03:26:19;;;;;;;;;;;;;;;21.73;32.30;101620.44;2091493;28;1029;-59
2022/05/05 03:27:19;;;;;;;;;;;;;;;21.73;32.86;101622.22;2091536;28;629;-59
2022/05/05 03:28:19;;;;;;;;;;;;;;;21.74;31.96;101618.63;2091473;28;803;-59
2022/05/05 03:29:19;;;;;;;;;;;;;;;21.74;31.97;101615.91;2091527;28;969;-59
2022/05/05 03:30:19;;;;;;;;;;;;;;;21.72;33.00;101618.66;2091485;28;823;-59
2022/05/05 03:31:20;;;;;;;;;;;;;;;21.72;32.27;101613.28;2091594;28;954;-59
2022/05/05 03:32:20;;;;;;;;;;;;;;;21.73;32.64;101616.84;2091461;28;850;-59
2022/05/05 03:33:20;;;;;;;;;;;;;;;21.71;32.17;101616.91;2091444;28;965;-59
2022/05/05 03:34:20;;;;;;;;;;;;;;;21.71;32.38;101614.19;2091487;28;835;-59
2022/05/05 03:35:20;;;;;;;;;;;;;;;21.71;32.95;101625.00;2091398;28;623;-59
2022/05/05 03:36:20;;;;;;;;;;;;;;;21.71;32.18;101619.59;2091939;28;764;-59
2022/05/05 03:37:21;;;;;;;;;;;;;;;21.71;32.94;101625.00;2093475;28;1132;-59
2022/05/05 03:38:21;;;;;;;;;;;;;;;21.70;32.46;101623.22;2093229;28;1002;-59
2022/05/05 03:39:21;;;;;;;;;;;;;;;21.71;32.18;101622.28;2092632;28;748;-59
2022/05/05 03:40:21;;;;;;;;;;;;;;;21.72;33.09;101615.97;2091459;28;783;-59
2022/05/05 03:41:21;;;;;;;;;;;;;;;21.71;33.22;101616.91;2091373;28;965;-59
2022/05/05 03:42:21;;;;;;;;;;;;;;;21.71;33.23;101622.28;2091375;28;1032;-59
2022/05/05 03:43:22;;;;;;;;;;;;;;;21.71;32.55;101619.59;2091402;28;1001;-59
2022/05/05 03:44:22;;;;;;;;;;;;;;;21.71;32.94;101614.19;2091421;28;933;-59
2022/05/05 03:45:22;;;;;;;;;;;;;;;21.72;32.12;101613.28;2091418;28;1890;-59
2022/05/05 03:46:22;;;;;;;;;;;;;;;21.71;32.06;101614.19;2091359;28;799;-59
2022/05/05 03:47:22;;;;;;;;;;;;;;;21.73;32.75;101614.16;2091368;28;835;-59
2022/05/05 03:48:23;;;;;;;;;;;;;;;21.72;32.26;101618.66;2091359;28;1013;-59
2022/05/05 03:49:23;;;;;;;;;;;;;;;21.71;32.54;101611.50;2091410;28;843;-59
2022/05/05 03:50:23;;;;;;;;;;;;;;;21.71;32.84;101619.59;2091310;28;910;-59
2022/05/05 03:51:23;;;;;;;;;;;;;;;21.72;33.00;101618.66;2091336;28;768;-59
2022/05/05 03:52:23;;;;;;;;;;;;;;;21.71;32.41;101614.19;2091337;28;827;-59
2022/05/05 03:53:23;;;;;;;;;;;;;;;21.72;32.65;101615.06;2091335;28;795;-59
2022/05/05 03:54:24;;;;;;;;;;;;;;;21.71;32.29;101606.13;2091285;28;989;-59
2022/05/05 03:55:24;;;;;;;;;;;;;;;21.71;32.23;101608.81;2091290;28;776;-59
2022/05/05 03:56:24;;;;;;;;;;;;;;;21.72;33.16;101606.97;2091320;28;882;-59
2022/05/05 03:57:24;;;;;;;;;;;;;;;21.71;32.80;101608.81;2091302;28;705;-59
2022/05/05 03:58:27;;;;;;;;;;;;;;;21.71;33.08;101608.81;2091310;28;777;-59
2022/05/05 03:59:27;;;;;;;;;;;;;;;21.70;33.01;101607.03;2091206;28;977;-59
2022/05/05 04:00:28;;;;;;;;;;;;;;;21.71;33.24;101602.50;2091259;28;1033;-59
2022/05/05 04:01:28;;;;;;;;;;;;;;;22.42;31.73;101603.25;2091318;28;799;-59
2022/05/05 04:02:28;;;;;;;;;;;;;;;23.22;30.25;101599.97;2091355;28;878;-60
2022/05/05 04:03:31;;;;;;;;;;;;;;;23.74;29.87;101604.53;2091113;28;1224;-59
2022/05/05 04:04:31;;;;;;;;;;;;;;;24.12;29.49;101599.63;2091263;28;870;-58
2022/05/05 04:05:31;;;;;;;;;;;;;;;24.42;29.11;101602.13;2091181;28;1883;-59
2022/05/05 04:06:32;;;;;;;;;;;;;;;24.65;28.81;101597.66;2091243;28;973;-58
2022/05/05 04:07:32;;;;;;;;;;;;;;;24.75;28.43;101592.78;2091258;28;767;-59
2022/05/05 04:08:33;;;;;;;;;;;;;;;25.04;28.09;101600.69;2091244;28;1028;-59
2022/05/05 04:09:33;;;;;;;;;;;;;;;25.25;27.64;101594.38;2091229;28;1021;-58
2022/05/05 04:10:33;;;;;;;;;;;;;;;25.44;27.26;101604.47;2091215;28;802;-59
2022/05/05 04:11:34;;;;;;;;;;;;;;;25.61;27.47;101603.78;2091187;28;1028;-59
2022/05/05 04:12:34;;;;;;;;;;;;;;;25.79;26.42;101599.38;2091231;28;767;-59
2022/05/05 04:13:35;;;;;;;;;;;;;;;25.99;27.15;101598.50;2091200;28;843;-59
2022/05/05 04:14:35;;;;;;;;;;;;;;;26.09;26.88;101598.94;2091174;28;767;-59
2022/05/05 04:15:35;;;;;;;;;;;;;;;26.21;26.11;101569.53;2091191;28;1051;-59
2022/05/05 04:16:36;;;;;;;;;;;;;;;26.27;26.22;101586.41;2091158;28;847;-59
2022/05/05 04:17:36;;;;;;;;;;;;;;;26.38;25.46;101591.34;2091195;28;815;-59
2022/05/05 04:18:36;;;;;;;;;;;;;;;26.58;25.82;101589.50;2091509;28;779;-59
2022/05/05 04:19:36;;;;;;;;;;;;;;;26.69;25.26;101581.72;2091943;28;814;-59
2022/05/05 04:20:37;;;;;;;;;;;;;;;26.77;25.07;101578.66;2091139;28;751;-59
2022/05/05 04:21:37;;;;;;;;;;;;;;;26.79;24.74;101577.63;2091261;28;729;-59
2022/05/05 04:22:37;;;;;;;;;;;;;;;26.91;24.96;101583.47;2091135;28;795;-59
2022/05/05 04:23:37;;;;;;;;;;;;;;;27.00;24.52;101585.72;2091148;28;767;-59
2022/05/05 04:24:37;;;;;;;;;;;;;;;27.21;24.91;101581.06;2091137;28;894;-59
2022/05/05 04:25:41;;;;;;;;;;;;;;;27.16;24.59;101585.84;2091026;28;1953;-59
2022/05/05 04:26:42;;;;;;;;;;;;;;;27.18;24.21;101589.38;2091258;28;826;-59
2022/05/05 04:27:43;;;;;;;;;;;;;;;27.38;24.45;101584.72;2091170;28;757;-59
2022/05/05 04:28:44;;;;;;;;;;;;;;;27.56;23.70;101582.97;2090621;28;819;-59
2022/05/05 04:29:44;;;;;;;;;;;;;;;27.62;24.01;101581.75;2091168;28;1032;-59
2022/05/05 04:30:45;;;;;;;;;;;;;;;27.64;23.96;101585.28;2091197;28;763;-59
2022/05/05 04:31:45;;;;;;;;;;;;;;;27.66;23.41;101578.81;2091139;28;791;-59
2022/05/05 04:32:46;;;;;;;;;;;;;;;27.78;23.37;101581.81;2091117;28;848;-59
2022/05/05 04:33:46;;;;;;;;;;;;;;;27.81;23.19;101582.56;2091108;28;787;-59
2022/05/05 04:34:47;;;;;;;;;;;;;;;27.99;23.41;101585.25;2091109;28;862;-59
2022/05/05 04:35:48;;;;;;;;;;;;;;;28.02;23.11;101584.22;2091049;28;787;-59
2022/05/05 04:36:49;;;;;;;;;;;;;;;27.95;23.45;101587.25;2091079;28;791;-59
2022/05/05 04:37:49;;;;;;;;;;;;;;;28.05;22.82;101578.59;2091015;28;1226;-59
2022/05/05 04:38:49;;;;;;;;;;;;;;;28.18;22.79;101576.13;2091119;28;742;-59
2022/05/05 04:39:49;;;;;;;;;;;;;;;28.20;22.55;101576.91;2091051;28;742;-59
2022/05/05 04:40:49;;;;;;;;;;;;;;;28.34;22.94;101581.59;2091074;28;992;-59
2022/05/05 04:41:50;;;;;;;;;;;;;;;28.35;22.85;101581.53;2091071;28;655;-59
2022/05/05 04:42:50;;;;;;;;;;;;;;;28.42;22.94;101578.47;2091037;28;752;-59
2022/05/05 04:43:50;;;;;;;;;;;;;;;28.44;22.86;101582.84;2091112;28;1024;-59
2022/05/05 04:44:50;;;;;;;;;;;;;;;28.43;22.41;101580.22;2091197;28;1032;-59
2022/05/05 04:45:50;;;;;;;;;;;;;;;28.43;22.63;101575.63;2090937;28;1894;-59
2022/05/05 04:46:50;;;;;;;;;;;;;;;28.49;22.84;101590.78;2091046;28;862;-59
2022/05/05 04:47:51;;;;;;;;;;;;;;;28.58;22.76;101581.19;2091039;28;1028;-59
2022/05/05 04:48:51;;;;;;;;;;;;;;;28.53;22.74;101581.47;2091079;28;868;-59
2022/05/05 04:49:53;;;;;;;;;;;;;;;28.69;22.50;101584.22;2091046;28;802;-59
2022/05/05 04:50:53;;;;;;;;;;;;;;;28.72;22.38;101584.03;2091010;28;814;-59
2022/05/05 04:51:53;;;;;;;;;;;;;;;28.74;22.57;101586.66;2091031;28;965;-59
2022/05/05 04:52:53;;;;;;;;;;;;;;;28.69;22.54;101590.53;2091034;28;834;-59
2022/05/05 04:53:53;;;;;;;;;;;;;;;28.64;22.34;101580.88;2091070;28;787;-59
2022/05/05 04:54:54;;;;;;;;;;;;;;;28.80;22.04;101587.25;2090990;28;819;-59
2022/05/05 04:55:54;;;;;;;;;;;;;;;28.77;22.19;101583.78;2091034;28;989;-59
2022/05/05 04:56:54;;;;;;;;;;;;;;;28.77;22.48;101590.16;2091008;28;993;-59
2022/05/05 04:57:54;;;;;;;;;;;;;;;28.77;22.42;101584.69;2090974;28;678;-59
2022/05/05 04:58:54;;;;;;;;;;;;;;;28.90;22.29;101562.16;2091019;28;782;-59
2022/05/05 04:59:54;;;;;;;;;;;;;;;29.09;22.78;101565.56;2090974;28;1029;-59
2022/05/05 05:00:54;;;;;;;;;;;;;;;29.20;22.51;101559.47;2091021;28;969;-59
2022/05/05 05:01:55;;;;;;;;;;;;;;;29.09;22.49;101565.56;2090999;28;878;-59
2022/05/05 05:02:55;;;;;;;;;;;;;;;29.05;22.10;101558.53;2090818;28;1074;-59
2022/05/05 05:03:55;;;;;;;;;;;;;;;29.15;22.06;101564.31;2090314;28;1600;-59
2022/05/05 05:04:56;;;;;;;;;;;;;;;29.12;22.41;101565.38;2090299;28;1974;-59
2022/05/05 05:05:56;;;;;;;;;;;;;;;29.18;22.02;101568.72;2091174;28;910;-59
2022/05/05 05:06:56;;;;;;;;;;;;;;;29.22;22.58;101567.56;2092693;28;969;-59
2022/05/05 05:07:56;;;;;;;;;;;;;;;29.12;22.62;101565.38;2091632;28;779;-59
2022/05/05 05:08:56;;;;;;;;;;;;;;;29.12;22.22;101565.38;2091098;28;803;-59
2022/05/05 05:09:56;;;;;;;;;;;;;;;29.08;21.97;101565.69;2090921;28;937;-59
2022/05/05 05:10:57;;;;;;;;;;;;;;;29.06;22.36;101564.88;2090334;28;1172;-59
2022/05/05 05:11:57;;;;;;;;;;;;;;;29.15;21.90;101564.31;2090307;28;965;-60
2022/05/05 05:12:57;;;;;;;;;;;;;;;29.35;21.90;101560.44;2090968;28;828;-59
2022/05/05 05:13:57;;;;;;;;;;;;;;;29.23;22.36;101569.34;2090999;28;985;-59
2022/05/05 05:14:58;;;;;;;;;;;;;;;29.26;21.85;101572.75;2090922;28;851;-59
2022/05/05 05:15:58;;;;;;;;;;;;;;;29.23;21.77;101564.75;2091083;28;1044;-59
2022/05/05 05:16:58;;;;;;;;;;;;;;;29.23;22.39;101563.88;2090858;28;831;-59
2022/05/05 05:17:58;;;;;;;;;;;;;;;29.23;21.86;101572.94;2090984;28;855;-59
2022/05/05 05:18:58;;;;;;;;;;;;;;;29.21;21.80;101563.94;2090938;28;981;-59
2022/05/05 05:19:58;;;;;;;;;;;;;;;29.35;21.95;101568.63;2090911;28;791;-59
2022/05/05 05:20:59;;;;;;;;;;;;;;;29.33;21.50;101573.28;2090911;28;1039;-59
2022/05/05 05:21:59;;;;;;;;;;;;;;;29.20;21.76;101570.38;2090902;28;989;-59
2022/05/05 05:22:59;;;;;;;;;;;;;;;29.33;21.63;101570.56;2090881;28;779;-59
2022/05/05 05:23:59;;;;;;;;;;;;;;;29.21;22.11;101565.81;2090914;28;973;-59
2022/05/05 05:24:59;;;;;;;;;;;;;;;29.18;22.63;101574.19;2090851;28;1947;-59
2022/05/05 05:25:59;;;;;;;;;;;;;;;29.14;22.04;101565.31;2090939;28;1032;-59
2022/05/05 05:27:00;;;;;;;;;;;;;;;29.32;21.57;101568.78;2090883;28;600;-59
2022/05/05 05:28:00;;;;;;;;;;;;;;;29.35;22.06;101573.19;2090906;28;847;-59